Anchor Point, Alaska
Current Conditions -  °F | °C
As of 4:53 AM on Monday 22 Dec 2014 (Local Time) from PAHO Reporting Station
Overcast Overcast  
Wind Chill: 30°   Ceiling: 8000
Heat Index: 30°   Visibility: 10mi
Dew Point: 27°   Wind: 3mph
Humidity: 88%   Direction: 20°NNE
Pressure: 29.62"   Gusts: NA
Location:  59.77°N, 151.82°W
Report Text: PAHO 221353Z AUTO 02003KT 10SM BKN080 OVC100 M01/M03 A2962 RMK AO2 UPB13E33 SLP031 P0000 T10111028 TSNO
Loading
Personal Weather Stations






























Interactive Weather Map New forecast layout! Learn more

10-Day Weather Forecast

Advertisements
Track Severe Weather on mobile